Time;durP1;ratioP1;P1;durP2;ratioP2;P2;SDS_P1;SDS_P2;PMS_P1;PMS_P2;Temp;Humidity;BMP_temperature;BMP_pressure;BME280_temperature;BME280_humidity;BME280_pressure;Samples;Min_cycle;Max_cycle;Signal;HPM_P1;HPM_P2
2023/06/24 00:01:13;;;;;;;;;;;;;;;17.29;66.18;98869.41;5080352;28;19928;-54
2023/06/24 00:03:43;;;;;;;;;;;;;;;17.26;66.31;98867.34;5075578;28;19932;-56
2023/06/24 00:06:11;;;;;;;;;;;;;;;17.23;66.38;98871.53;5081115;28;19934;-54
2023/06/24 00:08:40;;;;;;;;;;;;;;;17.25;66.40;98862.97;5082573;28;20460;-56
2023/06/24 00:11:08;;;;;;;;;;;;;;;17.22;66.78;98858.94;5074392;28;19923;-55
2023/06/24 00:13:36;;;;;;;;;;;;;;;17.20;66.43;98868.63;5079136;28;19924;-56
2023/06/24 00:16:06;;;;;;;;;;;;;;;17.18;66.91;98868.97;5073998;28;19924;-55
2023/06/24 00:18:33;;;;;;;;;;;;;;;17.23;67.06;98868.00;5080222;28;19924;-56
2023/06/24 00:21:02;;;;;;;;;;;;;;;17.21;66.83;98864.78;5083634;28;19971;-55
2023/06/24 00:23:34;;;;;;;;;;;;;;;17.20;66.80;98866.69;5080881;28;19938;-55
2023/06/24 00:26:03;;;;;;;;;;;;;;;17.14;67.13;98859.78;5079178;28;19974;-55
2023/06/24 00:28:30;;;;;;;;;;;;;;;17.11;67.29;98865.16;5080119;28;20380;-57
2023/06/24 00:30:59;;;;;;;;;;;;;;;17.08;67.14;98860.31;5059969;28;19964;-56
2023/06/24 00:33:27;;;;;;;;;;;;;;;17.00;67.59;98854.56;5062248;28;20021;-55
2023/06/24 00:35:57;;;;;;;;;;;;;;;17.02;67.54;98859.69;5079594;28;20018;-55
2023/06/24 00:38:24;;;;;;;;;;;;;;;17.00;67.70;98853.75;5077980;28;19935;-55
2023/06/24 00:40:52;;;;;;;;;;;;;;;16.98;67.99;98851.31;5086047;28;19925;-55
2023/06/24 00:43:21;;;;;;;;;;;;;;;16.94;68.13;98846.84;5068507;28;19937;-55
2023/06/24 00:45:49;;;;;;;;;;;;;;;16.91;68.43;98850.22;5063210;28;20022;-56
2023/06/24 00:48:17;;;;;;;;;;;;;;;16.86;68.61;98839.44;5056953;28;19986;-55
2023/06/24 00:50:45;;;;;;;;;;;;;;;16.83;68.93;98840.09;5063763;28;19931;-55
2023/06/24 00:53:13;;;;;;;;;;;;;;;16.85;69.00;98835.09;5062167;28;19924;-55
2023/06/24 00:55:41;;;;;;;;;;;;;;;16.85;68.91;98830.41;5065510;28;20758;-56
2023/06/24 00:58:09;;;;;;;;;;;;;;;16.81;68.96;98828.63;5063205;28;19931;-55
2023/06/24 01:00:38;;;;;;;;;;;;;;;16.76;68.90;98833.16;5068675;28;19983;-57
2023/06/24 01:03:06;;;;;;;;;;;;;;;16.74;69.08;98832.72;5061031;28;20027;-56
2023/06/24 01:05:35;;;;;;;;;;;;;;;16.75;69.15;98831.56;5085263;28;19986;-55
2023/06/24 01:08:03;;;;;;;;;;;;;;;16.66;69.93;98833.50;5063483;28;19931;-55
2023/06/24 01:10:31;;;;;;;;;;;;;;;16.75;69.69;98831.56;5067113;28;19936;-55
2023/06/24 01:12:58;;;;;;;;;;;;;;;16.72;69.76;98836.91;5083377;28;20010;-56
2023/06/24 01:15:28;;;;;;;;;;;;;;;16.74;69.88;98831.91;5086764;28;20018;-54
2023/06/24 01:18:00;;;;;;;;;;;;;;;16.73;69.85;98831.09;5089815;28;19975;-55
2023/06/24 01:20:29;;;;;;;;;;;;;;;16.70;69.81;98825.44;5062278;28;20312;-55
2023/06/24 01:23:16;;;;;;;;;;;;;;;16.68;69.64;98823.03;5078334;28;19924;-57
2023/06/24 01:25:47;;;;;;;;;;;;;;;16.66;69.90;98819.78;5062937;28;19924;-55
2023/06/24 01:28:20;;;;;;;;;;;;;;;16.62;70.22;98824.34;5069889;28;19923;-55
2023/06/24 01:30:55;;;;;;;;;;;;;;;16.65;70.13;98820.91;5080603;28;19932;-56
2023/06/24 01:33:30;;;;;;;;;;;;;;;16.69;70.23;98821.06;5066971;28;20417;-55
2023/06/24 01:35:58;;;;;;;;;;;;;;;16.67;70.06;98812.34;5059547;28;21681;-55
2023/06/24 01:38:28;;;;;;;;;;;;;;;16.67;70.23;98812.34;5099991;28;19925;-55
2023/06/24 01:40:57;;;;;;;;;;;;;;;16.59;70.25;98804.97;5064603;28;19925;-59
2023/06/24 01:43:25;;;;;;;;;;;;;;;16.58;70.58;98804.19;5071322;28;20418;-56
2023/06/24 01:45:53;;;;;;;;;;;;;;;16.57;70.51;98807.25;5066736;28;19932;-56
2023/06/24 01:48:23;;;;;;;;;;;;;;;16.54;70.79;98803.22;5079618;28;20399;-56
2023/06/24 01:50:56;;;;;;;;;;;;;;;16.55;70.63;98802.09;5066588;28;19932;-56
2023/06/24 01:53:24;;;;;;;;;;;;;;;16.60;70.45;98798.34;5067615;28;19968;-55
2023/06/24 01:55:54;;;;;;;;;;;;;;;16.60;70.20;98796.41;5066295;28;19931;-56
2023/06/24 01:58:22;;;;;;;;;;;;;;;16.58;70.25;98801.44;5080321;28;19932;-55
2023/06/24 02:00:50;;;;;;;;;;;;;;;16.45;70.71;98805.97;5068007;28;19982;-55
2023/06/24 02:03:18;;;;;;;;;;;;;;;16.49;70.70;98801.47;5090395;28;19932;-55
2023/06/24 02:05:47;;;;;;;;;;;;;;;16.52;70.52;98800.00;5064965;28;19928;-57
2023/06/24 02:08:16;;;;;;;;;;;;;;;16.46;70.94;98795.84;5063774;28;19951;-56
2023/06/24 02:10:44;;;;;;;;;;;;;;;16.42;71.20;98789.41;5079176;28;20542;-56
2023/06/24 02:13:13;;;;;;;;;;;;;;;16.37;71.35;98789.56;5064146;28;19947;-55
2023/06/24 02:15:43;;;;;;;;;;;;;;;16.43;71.20;98796.50;5061038;28;20023;-56
2023/06/24 02:18:11;;;;;;;;;;;;;;;16.41;71.27;98791.34;5064670;28;20329;-55
2023/06/24 02:20:39;;;;;;;;;;;;;;;16.39;71.38;98785.34;5086591;28;19923;-57
2023/06/24 02:23:08;;;;;;;;;;;;;;;16.37;71.22;98786.84;5060393;28;19939;-54
2023/06/24 02:25:38;;;;;;;;;;;;;;;16.35;71.55;98786.34;5065151;28;19939;-55
2023/06/24 02:28:07;;;;;;;;;;;;;;;16.33;71.54;98783.94;5079001;28;19924;-55
2023/06/24 02:30:35;;;;;;;;;;;;;;;16.29;71.48;98782.16;5083470;28;19982;-54
2023/06/24 02:33:03;;;;;;;;;;;;;;;16.26;71.80;98780.09;5081807;28;19955;-55
2023/06/24 02:35:33;;;;;;;;;;;;;;;16.29;72.07;98779.44;5061267;28;19935;-56
2023/06/24 02:38:03;;;;;;;;;;;;;;;16.28;72.07;98783.31;5062309;28;19932;-56
2023/06/24 02:40:30;;;;;;;;;;;;;;;16.29;71.91;98793.94;5080956;28;19931;-55
2023/06/24 02:43:01;;;;;;;;;;;;;;;16.26;71.90;98796.56;5085335;28;19924;-55
2023/06/24 02:45:29;;;;;;;;;;;;;;;16.29;72.03;98796.69;5097845;28;20396;-56
2023/06/24 02:47:57;;;;;;;;;;;;;;;16.29;72.14;98796.69;5057101;28;19932;-56
2023/06/24 02:50:28;;;;;;;;;;;;;;;16.33;72.06;98805.06;5058729;28;19956;-55
2023/06/24 02:52:57;;;;;;;;;;;;;;;16.28;72.35;98802.50;5062979;28;20090;-62
2023/06/24 02:55:28;;;;;;;;;;;;;;;16.29;72.45;98802.16;5068682;28;20023;-55
2023/06/24 02:58:03;;;;;;;;;;;;;;;16.33;72.51;98807.81;5060408;28;19932;-56
2023/06/24 03:01:08;;;;;;;;;;;;;;;16.31;72.55;98799.13;5065733;28;19924;-55
2023/06/24 03:03:49;;;;;;;;;;;;;;;16.29;72.44;98806.84;5063149;28;19957;-55
2023/06/24 03:06:18;;;;;;;;;;;;;;;16.27;72.53;98807.19;5062654;28;19971;-55
2023/06/24 03:08:47;;;;;;;;;;;;;;;16.31;72.41;98801.84;5087918;28;19928;-55
2023/06/24 03:11:16;;;;;;;;;;;;;;;16.25;72.63;98812.19;5062396;28;20019;-55
2023/06/24 03:13:47;;;;;;;;;;;;;;;16.15;73.01;98813.34;5059541;28;20285;-56
2023/06/24 03:16:19;;;;;;;;;;;;;;;15.99;73.48;98809.50;5059418;28;19924;-56
2023/06/24 03:19:13;;;;;;;;;;;;;;;15.96;73.56;98818.38;5080875;28;19932;-56
2023/06/24 03:21:42;;;;;;;;;;;;;;;15.93;73.60;98817.09;5059836;28;19924;-55
2023/06/24 03:24:12;;;;;;;;;;;;;;;15.96;73.64;98818.38;5064685;28;20376;-58
2023/06/24 03:26:42;;;;;;;;;;;;;;;15.91;73.82;98824.00;5063175;28;19928;-55
2023/06/24 03:29:14;;;;;;;;;;;;;;;15.90;74.00;98825.16;5061931;28;20289;-55
2023/06/24 03:31:51;;;;;;;;;;;;;;;15.90;73.88;98836.91;5059931;28;19997;-56
2023/06/24 03:34:22;;;;;;;;;;;;;;;15.94;73.58;98835.13;5060981;28;20440;-56
2023/06/24 03:36:51;;;;;;;;;;;;;;;15.95;73.23;98844.16;5095314;28;20270;-55
2023/06/24 03:39:18;;;;;;;;;;;;;;;15.95;73.70;98846.91;5070277;28;19959;-55
2023/06/24 03:41:46;;;;;;;;;;;;;;;15.93;73.50;98852.72;5062020;28;19998;-55
2023/06/24 03:44:16;;;;;;;;;;;;;;;15.89;73.54;98859.16;5066304;28;19939;-56
2023/06/24 03:46:45;;;;;;;;;;;;;;;15.86;73.42;98865.28;5057152;28;19924;-56
2023/06/24 03:49:13;;;;;;;;;;;;;;;15.83;73.42;98865.94;5061813;28;19971;-56
2023/06/24 03:51:41;;;;;;;;;;;;;;;15.83;73.23;98869.47;5067321;28;20262;-56
2023/06/24 03:54:09;;;;;;;;;;;;;;;15.87;73.29;98869.63;5078765;28;19928;-56
2023/06/24 03:56:37;;;;;;;;;;;;;;;15.81;73.15;98868.19;5066801;28;20446;-56
2023/06/24 03:59:05;;;;;;;;;;;;;;;15.81;73.13;98874.47;5052603;28;20403;-56
2023/06/24 04:01:36;;;;;;;;;;;;;;;15.77;73.58;98875.44;5076555;28;20012;-56
2023/06/24 04:04:04;;;;;;;;;;;;;;;15.70;73.65;98879.44;5077473;28;19924;-56
2023/06/24 04:06:32;;;;;;;;;;;;;;;15.77;73.70;98879.00;5059505;28;20027;-55
2023/06/24 04:09:01;;;;;;;;;;;;;;;15.73;73.82;98883.50;5077402;28;20368;-55
2023/06/24 04:11:31;;;;;;;;;;;;;;;15.75;73.94;98883.16;5067222;28;19939;-55
2023/06/24 04:14:01;;;;;;;;;;;;;;;15.80;73.40;98872.06;5076171;28;19924;-55
2023/06/24 04:16:29;;;;;;;;;;;;;;;15.81;73.41;98879.13;5057484;28;19931;-56
2023/06/24 04:18:58;;;;;;;;;;;;;;;15.82;73.26;98883.47;5067898;28;20340;-55
2023/06/24 04:21:26;;;;;;;;;;;;;;;15.93;73.35;98888.34;5061752;28;19963;-55
2023/06/24 04:23:54;;;;;;;;;;;;;;;16.04;72.51;98901.72;5067603;28;19928;-55
2023/06/24 04:26:22;;;;;;;;;;;;;;;16.06;72.62;98900.25;5063002;28;19925;-57
2023/06/24 04:28:50;;;;;;;;;;;;;;;16.08;72.54;98899.94;5063046;28;19925;-54
2023/06/24 04:31:19;;;;;;;;;;;;;;;16.11;72.47;98902.03;5083862;28;19931;-56
2023/06/24 04:33:46;;;;;;;;;;;;;;;16.11;72.48;98899.28;5061671;28;19964;-57
2023/06/24 04:36:16;;;;;;;;;;;;;;;16.16;72.29;98899.13;5066624;28;20023;-54
2023/06/24 04:38:43;;;;;;;;;;;;;;;16.21;72.20;98908.00;5066514;28;19924;-55
2023/06/24 04:41:11;;;;;;;;;;;;;;;16.24;71.81;98906.53;5068124;28;19932;-55
2023/06/24 04:43:39;;;;;;;;;;;;;;;16.23;71.90;98913.94;5087520;28;19924;-58
2023/06/24 04:46:08;;;;;;;;;;;;;;;16.29;72.14;98905.56;5076774;28;20679;-56
2023/06/24 04:48:36;;;;;;;;;;;;;;;16.38;71.32;98901.69;5067448;28;19931;-59
2023/06/24 04:51:06;;;;;;;;;;;;;;;16.45;71.09;98898.44;5078338;28;20277;-55
2023/06/24 04:53:35;;;;;;;;;;;;;;;16.48;70.99;98901.34;5088121;28;19928;-55
2023/06/24 04:56:03;;;;;;;;;;;;;;;16.55;70.55;98908.25;5082723;28;20347;-55
2023/06/24 04:58:30;;;;;;;;;;;;;;;16.58;70.02;98913.91;5078781;28;20407;-55
2023/06/24 05:00:58;;;;;;;;;;;;;;;16.59;69.66;98912.78;5081224;28;20388;-55
2023/06/24 05:03:26;;;;;;;;;;;;;;;16.61;69.39;98913.25;5062448;28;19928;-56
2023/06/24 05:05:54;;;;;;;;;;;;;;;16.62;69.29;98914.88;5081214;28;20331;-56
2023/06/24 05:08:22;;;;;;;;;;;;;;;16.64;68.96;98923.56;5087025;28;19924;-56
2023/06/24 05:10:51;;;;;;;;;;;;;;;16.69;68.98;98925.34;5096099;28;20011;-55
2023/06/24 05:13:19;;;;;;;;;;;;;;;16.75;69.67;98919.38;5082855;28;19928;-55
2023/06/24 05:15:47;;;;;;;;;;;;;;;16.85;69.98;98920.16;5082702;28;19924;-56
2023/06/24 05:18:15;;;;;;;;;;;;;;;16.94;69.80;98918.19;5092779;28;19950;-55
2023/06/24 05:20:43;;;;;;;;;;;;;;;16.86;70.17;98919.03;5086803;28;19966;-55
2023/06/24 05:23:11;;;;;;;;;;;;;;;16.74;69.94;98920.53;5086805;28;19929;-56
2023/06/24 05:25:38;;;;;;;;;;;;;;;16.74;70.54;98916.97;5084459;28;19986;-55
2023/06/24 05:28:08;;;;;;;;;;;;;;;16.79;70.53;98918.75;5084692;28;20361;-56
2023/06/24 05:30:35;;;;;;;;;;;;;;;16.89;70.39;98934.84;5075405;28;19940;-55
2023/06/24 05:33:03;;;;;;;;;;;;;;;16.95;69.78;98923.34;5076552;28;20023;-56
2023/06/24 05:35:31;;;;;;;;;;;;;;;16.93;69.96;98922.84;5083794;28;19978;-55
2023/06/24 05:37:59;;;;;;;;;;;;;;;16.90;69.47;98922.72;5081927;28;19975;-56
2023/06/24 05:40:26;;;;;;;;;;;;;;;16.98;69.14;98924.63;5071920;28;19928;-55
2023/06/24 05:42:54;;;;;;;;;;;;;;;17.05;68.53;98927.69;5082635;28;19978;-55
2023/06/24 05:45:23;;;;;;;;;;;;;;;17.13;68.44;98921.34;5082862;28;20435;-55
2023/06/24 05:47:51;;;;;;;;;;;;;;;17.13;68.04;98926.81;5085347;28;19924;-56
2023/06/24 05:50:19;;;;;;;;;;;;;;;17.14;68.79;98933.94;5079951;28;19983;-58
2023/06/24 05:52:47;;;;;;;;;;;;;;;17.12;67.65;98932.66;5085065;28;20019;-57
2023/06/24 05:55:15;;;;;;;;;;;;;;;17.21;67.84;98928.75;5074765;28;19924;-55
2023/06/24 05:57:43;;;;;;;;;;;;;;;17.23;67.61;98929.22;5078269;28;19932;-56
2023/06/24 06:00:11;;;;;;;;;;;;;;;17.26;67.29;98928.56;5073129;28;20614;-55
2023/06/24 06:02:40;;;;;;;;;;;;;;;17.34;66.42;98924.16;5084536;28;20369;-55
2023/06/24 06:05:09;;;;;;;;;;;;;;;17.36;64.48;98921.06;5076588;28;20031;-55
2023/06/24 06:07:38;;;;;;;;;;;;;;;17.41;64.34;98929.13;5071508;28;19955;-56
2023/06/24 06:10:06;;;;;;;;;;;;;;;17.48;63.71;98926.66;5075712;28;19960;-57
2023/06/24 06:12:34;;;;;;;;;;;;;;;17.54;63.74;98928.09;5068732;28;20019;-61
2023/06/24 06:15:02;;;;;;;;;;;;;;;17.58;63.43;98933.69;5072899;28;19969;-56
2023/06/24 06:17:29;;;;;;;;;;;;;;;17.61;62.23;98930.31;5072619;28;20353;-57
2023/06/24 06:19:58;;;;;;;;;;;;;;;17.67;61.78;98934.47;5073551;28;20222;-56
2023/06/24 06:22:26;;;;;;;;;;;;;;;17.67;61.62;98926.22;5054403;28;20369;-56
2023/06/24 06:24:54;;;;;;;;;;;;;;;17.69;61.88;98924.75;5072500;28;19956;-55
2023/06/24 06:27:22;;;;;;;;;;;;;;;17.68;61.92;98919.56;5071567;28;19924;-57
2023/06/24 06:29:50;;;;;;;;;;;;;;;17.67;61.41;98916.03;5072922;28;19972;-58
2023/06/24 06:32:17;;;;;;;;;;;;;;;17.78;61.60;98916.47;5076197;28;19956;-56
2023/06/24 06:34:48;;;;;;;;;;;;;;;17.86;61.18;98918.38;5056648;28;19928;-56
2023/06/24 06:37:17;;;;;;;;;;;;;;;17.93;60.87;98923.31;5074571;28;19978;-55
2023/06/24 06:39:45;;;;;;;;;;;;;;;18.07;60.95;98923.88;5072963;28;20009;-56
2023/06/24 06:42:14;;;;;;;;;;;;;;;18.10;59.69;98925.13;5072670;28;20547;-58
2023/06/24 06:44:42;;;;;;;;;;;;;;;18.11;60.07;98930.31;5076989;28;20369;-55
2023/06/24 06:47:13;;;;;;;;;;;;;;;18.26;60.35;98918.66;5072000;28;19935;-55
2023/06/24 06:49:40;;;;;;;;;;;;;;;18.25;59.79;98927.25;5069995;28;19985;-55
2023/06/24 06:52:08;;;;;;;;;;;;;;;18.26;60.17;98926.91;5074319;28;20293;-55
2023/06/24 06:54:38;;;;;;;;;;;;;;;18.30;60.12;98927.84;5055652;28;19978;-56
2023/06/24 06:57:06;;;;;;;;;;;;;;;18.35;60.14;98920.53;5082723;28;20151;-55
2023/06/24 06:59:34;;;;;;;;;;;;;;;18.39;60.27;98927.00;5083083;28;20020;-56
2023/06/24 07:02:01;;;;;;;;;;;;;;;18.48;59.39;98922.19;5063224;28;19974;-55
2023/06/24 07:04:30;;;;;;;;;;;;;;;18.58;59.28;98927.25;5072535;28;20441;-56
2023/06/24 07:06:58;;;;;;;;;;;;;;;18.71;58.87;98915.19;5073195;28;20054;-55
2023/06/24 07:09:26;;;;;;;;;;;;;;;18.76;58.53;98914.97;5070382;28;19933;-55
2023/06/24 07:11:55;;;;;;;;;;;;;;;18.81;58.37;98914.75;5071890;28;19974;-56
2023/06/24 07:14:23;;;;;;;;;;;;;;;18.81;57.69;98911.22;5089433;28;19932;-55
2023/06/24 07:16:51;;;;;;;;;;;;;;;18.87;57.93;98906.28;5083637;28;19970;-55
2023/06/24 07:19:19;;;;;;;;;;;;;;;19.05;58.17;98902.16;5082812;28;19970;-56
2023/06/24 07:21:47;;;;;;;;;;;;;;;19.18;57.71;98905.75;5095310;28;19932;-57
2023/06/24 07:24:15;;;;;;;;;;;;;;;19.13;57.66;98908.72;5071820;28;19928;-57
2023/06/24 07:26:42;;;;;;;;;;;;;;;19.13;57.66;98914.22;5073477;28;19933;-56
2023/06/24 07:29:11;;;;;;;;;;;;;;;18.95;57.82;98897.09;5083184;28;19928;-56
2023/06/24 07:31:39;;;;;;;;;;;;;;;19.02;57.56;98897.34;5098114;28;19974;-57
2023/06/24 07:34:07;;;;;;;;;;;;;;;19.19;58.08;98899.06;5081456;28;19932;-56
2023/06/24 07:36:35;;;;;;;;;;;;;;;19.19;57.95;98890.81;5077032;28;20003;-56
2023/06/24 07:39:03;;;;;;;;;;;;;;;19.30;57.66;98898.28;5071935;28;19971;-63
2023/06/24 07:41:31;;;;;;;;;;;;;;;19.26;57.37;98891.03;5086314;28;19931;-63
2023/06/24 07:43:59;;;;;;;;;;;;;;;19.25;57.50;98890.22;5070709;28;20380;-63
2023/06/24 07:46:28;;;;;;;;;;;;;;;19.38;57.45;98891.03;5067517;28;20563;-63
2023/06/24 07:48:56;;;;;;;;;;;;;;;19.50;57.20;98893.78;5082868;28;19934;-65
2023/06/24 07:51:24;;;;;;;;;;;;;;;19.47;56.96;98888.16;5068970;28;19963;-63
2023/06/24 07:53:52;;;;;;;;;;;;;;;19.55;57.14;98892.75;5076874;28;19930;-63
2023/06/24 07:56:20;;;;;;;;;;;;;;;19.48;57.38;98892.50;5065043;28;19928;-62
2023/06/24 07:58:47;;;;;;;;;;;;;;;19.42;57.56;98891.94;5079867;28;19929;-63
2023/06/24 08:01:15;;;;;;;;;;;;;;;19.48;57.57;98898.81;5082721;28;20495;-63
2023/06/24 08:03:44;;;;;;;;;;;;;;;19.57;57.43;98894.00;5086761;28;19964;-63
2023/06/24 08:06:12;;;;;;;;;;;;;;;19.66;57.26;98898.63;5087493;28;19938;-62
2023/06/24 08:08:40;;;;;;;;;;;;;;;19.70;57.38;98899.50;5060760;28;19954;-62
2023/06/24 08:11:08;;;;;;;;;;;;;;;19.75;57.32;98891.81;5080051;28;19930;-63
2023/06/24 08:13:36;;;;;;;;;;;;;;;19.71;57.56;98892.84;5069657;28;20393;-64
2023/06/24 08:16:04;;;;;;;;;;;;;;;19.80;56.81;98897.06;5088401;28;19981;-62
2023/06/24 08:18:32;;;;;;;;;;;;;;;19.97;56.87;98897.94;5093345;28;19960;-62
2023/06/24 08:21:01;;;;;;;;;;;;;;;20.04;56.87;98898.19;5089218;28;20437;-63
2023/06/24 08:23:28;;;;;;;;;;;;;;;20.14;56.42;98904.00;5082486;28;19946;-63
2023/06/24 08:25:56;;;;;;;;;;;;;;;20.18;55.64;98903.28;5090063;28;20390;-62
2023/06/24 08:28:35;;;;;;;;;;;;;;;20.28;54.34;98903.59;5087774;28;19928;-62
2023/06/24 08:31:05;;;;;;;;;;;;;;;20.31;54.31;98913.94;5085845;28;19924;-65
2023/06/24 08:33:33;;;;;;;;;;;;;;;20.36;54.29;98899.88;5103738;28;19932;-62
2023/06/24 08:36:02;;;;;;;;;;;;;;;20.41;54.69;98907.91;5089315;28;20043;-62
2023/06/24 08:38:30;;;;;;;;;;;;;;;20.25;54.80;98904.31;5073168;28;19959;-62
2023/06/24 08:40:58;;;;;;;;;;;;;;;20.21;54.81;98895.13;5092364;28;19935;-62
2023/06/24 08:43:26;;;;;;;;;;;;;;;20.30;54.79;98903.25;5090234;28;19924;-63
2023/06/24 08:45:54;;;;;;;;;;;;;;;20.38;52.65;98892.03;5088561;28;20387;-63
2023/06/24 08:48:22;;;;;;;;;;;;;;;20.44;53.39;98898.09;5092433;28;19924;-62
2023/06/24 08:50:51;;;;;;;;;;;;;;;20.54;51.14;98896.84;5083956;28;19931;-63
2023/06/24 08:53:20;;;;;;;;;;;;;;;20.54;53.33;98899.59;5060836;28;20031;-63
2023/06/24 08:55:48;;;;;;;;;;;;;;;20.62;52.07;98890.34;5086153;28;19936;-62
2023/06/24 08:58:15;;;;;;;;;;;;;;;20.71;51.41;98893.75;5072638;28;19970;-63
2023/06/24 09:00:44;;;;;;;;;;;;;;;20.68;51.67;98897.22;5092228;28;19954;-63
2023/06/24 09:03:12;;;;;;;;;;;;;;;20.57;49.13;98893.38;5084436;28;19940;-63
2023/06/24 09:05:39;;;;;;;;;;;;;;;20.66;48.79;98891.22;5089065;28;20023;-64
2023/06/24 09:08:07;;;;;;;;;;;;;;;20.63;50.77;98897.47;5093610;28;20035;-62
2023/06/24 09:10:37;;;;;;;;;;;;;;;20.63;50.36;98903.00;5075460;28;19954;-62
2023/06/24 09:13:06;;;;;;;;;;;;;;;20.89;47.11;98883.97;5089336;28;19932;-63
2023/06/24 09:15:33;;;;;;;;;;;;;;;20.90;47.05;98884.75;5093809;28;19977;-62
2023/06/24 09:18:02;;;;;;;;;;;;;;;20.84;46.95;98886.19;5090153;28;19931;-63
2023/06/24 09:20:31;;;;;;;;;;;;;;;20.82;48.13;98885.72;5069773;28;19932;-63
2023/06/24 09:22:59;;;;;;;;;;;;;;;20.94;48.45;98888.44;5075587;28;19935;-63
2023/06/24 09:25:27;;;;;;;;;;;;;;;20.91;47.17;98878.88;5084550;28;20381;-63
2023/06/24 09:27:57;;;;;;;;;;;;;;;21.03;48.63;98882.72;5085359;28;20049;-63
2023/06/24 09:30:25;;;;;;;;;;;;;;;21.11;48.13;98878.97;5075760;28;20308;-64
2023/06/24 09:32:53;;;;;;;;;;;;;;;21.09;47.75;98878.50;5092971;28;20277;-63
2023/06/24 09:35:22;;;;;;;;;;;;;;;21.13;45.66;98871.13;5075594;28;19924;-63
2023/06/24 09:37:50;;;;;;;;;;;;;;;21.05;44.58;98869.34;5075973;28;19960;-64
2023/06/24 09:40:18;;;;;;;;;;;;;;;21.05;45.22;98878.44;5085488;28;19961;-64
2023/06/24 09:42:49;;;;;;;;;;;;;;;21.13;45.57;98865.59;5061565;28;20341;-64
2023/06/24 09:45:21;;;;;;;;;;;;;;;21.21;45.12;98870.13;5061924;28;19939;-62
2023/06/24 09:47:50;;;;;;;;;;;;;;;21.34;43.76;98859.78;5071566;28;19990;-63
2023/06/24 09:50:18;;;;;;;;;;;;;;;21.49;43.76;98866.47;5084578;28;20023;-63
2023/06/24 09:52:46;;;;;;;;;;;;;;;21.45;44.51;98866.38;5085141;28;20425;-63
2023/06/24 09:55:14;;;;;;;;;;;;;;;21.29;43.25;98852.56;5081380;28;20414;-62
2023/06/24 09:57:43;;;;;;;;;;;;;;;21.32;43.47;98845.53;5074797;28;20055;-62
2023/06/24 10:00:11;;;;;;;;;;;;;;;21.48;44.24;98854.59;5053478;28;19970;-62
2023/06/24 10:02:42;;;;;;;;;;;;;;;21.60;44.81;98848.94;5058733;28;19924;-65
2023/06/24 10:05:10;;;;;;;;;;;;;;;21.66;42.67;98838.41;5072018;28;19940;-62
2023/06/24 10:07:37;;;;;;;;;;;;;;;21.91;43.85;98836.97;5089466;28;19954;-63
2023/06/24 10:10:09;;;;;;;;;;;;;;;21.87;43.74;98844.38;5073714;28;19924;-62
2023/06/24 10:12:37;;;;;;;;;;;;;;;21.91;42.72;98834.19;5083509;28;19928;-63
2023/06/24 10:15:05;;;;;;;;;;;;;;;21.92;43.43;98832.22;5076156;28;19964;-62
2023/06/24 10:17:33;;;;;;;;;;;;;;;21.80;43.43;98826.84;5076870;28;19928;-62
2023/06/24 10:20:06;;;;;;;;;;;;;;;21.59;43.88;98832.72;5078718;28;19955;-62
2023/06/24 10:22:35;;;;;;;;;;;;;;;21.59;43.69;98838.25;5080173;28;19928;-62
2023/06/24 10:25:06;;;;;;;;;;;;;;;21.78;42.92;98824.41;5079628;28;19932;-63
2023/06/24 10:27:39;;;;;;;;;;;;;;;21.67;42.76;98823.41;5078866;28;19960;-63
2023/06/24 10:30:08;;;;;;;;;;;;;;;21.72;42.66;98820.34;5066652;28;19925;-62
2023/06/24 10:32:44;;;;;;;;;;;;;;;21.88;41.84;98812.78;5089837;28;20432;-63
2023/06/24 10:35:24;;;;;;;;;;;;;;;22.02;41.27;98817.00;5091490;28;20006;-62
2023/06/24 10:37:55;;;;;;;;;;;;;;;22.16;41.50;98812.59;5070192;28;19977;-63
2023/06/24 10:40:37;;;;;;;;;;;;;;;22.16;41.06;98818.13;5073229;28;19924;-62
2023/06/24 10:43:24;;;;;;;;;;;;;;;22.16;41.80;98817.31;5089805;28;19993;-63
2023/06/24 10:45:51;;;;;;;;;;;;;;;21.97;41.54;98807.84;5081954;28;20043;-62
2023/06/24 10:48:20;;;;;;;;;;;;;;;22.05;41.02;98805.19;5088603;28;20424;-63
2023/06/24 10:50:50;;;;;;;;;;;;;;;21.95;40.96;98804.63;5090529;28;19934;-63
2023/06/24 10:53:19;;;;;;;;;;;;;;;22.25;39.75;98792.97;5085475;28;20023;-64
2023/06/24 10:55:47;;;;;;;;;;;;;;;22.17;40.83;98785.72;5073008;28;20030;-63
2023/06/24 10:58:15;;;;;;;;;;;;;;;22.14;41.06;98791.97;5086296;28;19928;-63
2023/06/24 11:00:45;;;;;;;;;;;;;;;22.22;40.81;98794.50;5089191;28;19963;-63
2023/06/24 11:03:13;;;;;;;;;;;;;;;22.30;40.30;98784.34;5090189;28;19931;-63
2023/06/24 11:05:42;;;;;;;;;;;;;;;22.24;40.79;98780.31;5088930;28;19963;-63
2023/06/24 11:08:11;;;;;;;;;;;;;;;22.20;41.52;98768.34;5091364;28;20024;-64
2023/06/24 11:10:45;;;;;;;;;;;;;;;22.27;41.73;98767.72;5079686;28;19924;-64
2023/06/24 11:13:13;;;;;;;;;;;;;;;22.37;41.41;98767.91;5081549;28;19965;-64
2023/06/24 11:15:42;;;;;;;;;;;;;;;22.31;40.46;98763.00;5072658;28;19928;-64
2023/06/24 11:18:10;;;;;;;;;;;;;;;22.27;41.04;98762.16;5056794;28;20285;-63
2023/06/24 11:20:38;;;;;;;;;;;;;;;22.20;41.24;98768.34;5091194;28;20399;-64
2023/06/24 11:23:10;;;;;;;;;;;;;;;22.08;41.24;98761.00;5085525;28;19928;-63
2023/06/24 11:25:43;;;;;;;;;;;;;;;22.17;41.70;98763.56;5087470;28;19928;-64
2023/06/24 11:28:14;;;;;;;;;;;;;;;22.37;40.98;98751.28;5075955;28;20011;-63
2023/06/24 11:30:42;;;;;;;;;;;;;;;22.33;40.82;98741.31;5081344;28;19931;-64
2023/06/24 11:33:10;;;;;;;;;;;;;;;22.51;40.82;98758.22;5088256;28;20430;-63
2023/06/24 11:35:38;;;;;;;;;;;;;;;22.49;41.19;98745.56;5091186;28;20250;-64
2023/06/24 11:38:06;;;;;;;;;;;;;;;22.74;41.06;98742.38;5071777;28;20012;-63
2023/06/24 11:40:34;;;;;;;;;;;;;;;22.56;40.93;98742.09;5085118;28;19927;-64
2023/06/24 11:43:04;;;;;;;;;;;;;;;22.65;40.18;98742.66;5089974;28;20018;-63
2023/06/24 11:45:32;;;;;;;;;;;;;;;22.70;39.72;98745.09;5085584;28;19925;-65
2023/06/24 11:48:04;;;;;;;;;;;;;;;22.49;40.54;98742.00;5086411;28;19924;-63
2023/06/24 11:50:32;;;;;;;;;;;;;;;22.54;40.84;98738.91;5088061;28;19930;-63
2023/06/24 11:53:00;;;;;;;;;;;;;;;22.48;40.80;98730.13;5071551;28;20023;-64
2023/06/24 11:55:28;;;;;;;;;;;;;;;22.73;40.87;98738.00;5089760;28;19931;-64
2023/06/24 11:57:57;;;;;;;;;;;;;;;22.70;40.89;98741.53;5078660;28;19951;-64
2023/06/24 12:00:27;;;;;;;;;;;;;;;22.61;41.62;98738.22;5090349;28;20554;-64
2023/06/24 12:02:55;;;;;;;;;;;;;;;22.83;40.55;98739.34;5087734;28;19924;-63
2023/06/24 12:05:28;;;;;;;;;;;;;;;22.98;40.21;98722.59;5082386;28;19924;-64
2023/06/24 12:07:57;;;;;;;;;;;;;;;22.98;40.22;98725.38;5082508;28;19928;-63
2023/06/24 12:10:25;;;;;;;;;;;;;;;23.23;38.46;98720.19;5090842;28;20392;-63
2023/06/24 12:12:53;;;;;;;;;;;;;;;23.35;38.59;98727.44;5081685;28;19928;-64
2023/06/24 12:15:21;;;;;;;;;;;;;;;23.15;39.47;98735.09;5084873;28;19932;-64
2023/06/24 12:17:50;;;;;;;;;;;;;;;23.11;39.25;98725.13;5086153;28;19924;-64
2023/06/24 12:20:18;;;;;;;;;;;;;;;23.14;39.17;98719.66;5086924;28;19958;-63
2023/06/24 12:22:46;;;;;;;;;;;;;;;23.16;39.62;98713.72;5081782;28;19973;-63
2023/06/24 12:25:14;;;;;;;;;;;;;;;23.24;39.27;98720.97;5083418;28;19928;-67
2023/06/24 12:27:42;;;;;;;;;;;;;;;23.16;39.18;98716.50;5066811;28;19965;-65
2023/06/24 12:30:11;;;;;;;;;;;;;;;23.20;39.29;98718.13;5084316;28;19924;-64
2023/06/24 12:32:39;;;;;;;;;;;;;;;23.19;39.63;98712.97;5084881;28;20523;-64
2023/06/24 12:35:09;;;;;;;;;;;;;;;23.24;38.88;98718.19;5084919;28;20392;-64
2023/06/24 12:37:37;;;;;;;;;;;;;;;23.23;39.63;98708.28;5072100;28;20377;-64
2023/06/24 12:40:05;;;;;;;;;;;;;;;23.27;40.73;98714.66;5080497;28;19925;-65
2023/06/24 12:42:33;;;;;;;;;;;;;;;23.30;40.25;98704.81;5095044;28;19959;-64
2023/06/24 12:45:01;;;;;;;;;;;;;;;23.43;38.82;98709.72;5085230;28;20397;-64
2023/06/24 12:47:29;;;;;;;;;;;;;;;23.29;38.27;98705.97;5072640;28;19974;-64
2023/06/24 12:49:57;;;;;;;;;;;;;;;23.25;38.60;98703.94;5086606;28;20381;-64
2023/06/24 12:52:26;;;;;;;;;;;;;;;23.31;38.79;98689.75;5089048;28;19977;-64
2023/06/24 12:54:54;;;;;;;;;;;;;;;23.37;38.09;98705.69;5088825;28;20025;-63
2023/06/24 12:57:22;;;;;;;;;;;;;;;23.42;38.70;98699.00;5091753;28;19928;-64